sensor_id;sensor_type;location;lat;lon;timestamp;P1;durP1;ratioP1;P2;durP2;ratioP2
37645;SDS011;23489;49.600;6.138;2023-08-06T00:01:49;4.55;;;1.80;;
37645;SDS011;23489;49.600;6.138;2023-08-06T00:04:14;5.55;;;1.80;;
37645;SDS011;23489;49.600;6.138;2023-08-06T00:06:40;2.67;;;1.92;;
37645;SDS011;23489;49.600;6.138;2023-08-06T00:09:06;3.85;;;2.00;;
37645;SDS011;23489;49.600;6.138;2023-08-06T00:11:31;3.78;;;2.05;;
37645;SDS011;23489;49.600;6.138;2023-08-06T00:13:57;3.90;;;1.95;;
37645;SDS011;23489;49.600;6.138;2023-08-06T00:16:22;4.72;;;2.33;;
37645;SDS011;23489;49.600;6.138;2023-08-06T00:18:48;4.05;;;2.00;;
37645;SDS011;23489;49.600;6.138;2023-08-06T07:33:33;0.68;;;0.68;;
37645;SDS011;23489;49.600;6.138;2023-08-06T07:35:59;1.10;;;1.00;;
37645;SDS011;23489;49.600;6.138;2023-08-06T07:38:24;1.35;;;0.85;;
37645;SDS011;23489;49.600;6.138;2023-08-06T07:40:51;1.23;;;0.80;;
37645;SDS011;23489;49.600;6.138;2023-08-06T08:07:33;1.30;;;1.10;;
37645;SDS011;23489;49.600;6.138;2023-08-06T08:09:59;1.13;;;1.08;;
37645;SDS011;23489;49.600;6.138;2023-08-06T08:12:24;1.17;;;1.08;;
37645;SDS011;23489;49.600;6.138;2023-08-06T08:14:50;1.05;;;0.95;;
37645;SDS011;23489;49.600;6.138;2023-08-06T08:17:15;1.63;;;1.20;;
37645;SDS011;23489;49.600;6.138;2023-08-06T17:15:23;4.53;;;1.70;;
37645;SDS011;23489;49.600;6.138;2023-08-06T17:17:49;2.92;;;1.90;;
37645;SDS011;23489;49.600;6.138;2023-08-06T17:20:15;5.17;;;2.37;;
37645;SDS011;23489;49.600;6.138;2023-08-06T17:22:40;4.73;;;2.40;;
37645;SDS011;23489;49.600;6.138;2023-08-06T17:25:06;3.92;;;2.50;;
37645;SDS011;23489;49.600;6.138;2023-08-06T17:27:32;4.05;;;2.33;;
37645;SDS011;23489;49.600;6.138;2023-08-06T17:29:57;5.07;;;2.25;;
37645;SDS011;23489;49.600;6.138;2023-08-06T17:32:23;6.00;;;2.30;;
37645;SDS011;23489;49.600;6.138;2023-08-06T17:34:49;3.23;;;2.30;;
37645;SDS011;23489;49.600;6.138;2023-08-06T17:37:14;4.32;;;2.13;;
37645;SDS011;23489;49.600;6.138;2023-08-06T17:39:40;4.57;;;2.20;;
37645;SDS011;23489;49.600;6.138;2023-08-06T17:42:05;7.07;;;2.60;;
37645;SDS011;23489;49.600;6.138;2023-08-06T17:44:36;3.78;;;2.17;;
37645;SDS011;23489;49.600;6.138;2023-08-06T17:47:02;4.97;;;2.22;;
37645;SDS011;23489;49.600;6.138;2023-08-06T17:49:28;5.25;;;2.17;;
37645;SDS011;23489;49.600;6.138;2023-08-06T17:51:54;4.85;;;2.47;;
37645;SDS011;23489;49.600;6.138;2023-08-06T17:54:19;4.70;;;2.33;;
37645;SDS011;23489;49.600;6.138;2023-08-06T17:56:46;3.83;;;2.30;;
37645;SDS011;23489;49.600;6.138;2023-08-06T17:59:11;4.63;;;2.87;;
37645;SDS011;23489;49.600;6.138;2023-08-06T18:01:37;4.93;;;2.55;;
37645;SDS011;23489;49.600;6.138;2023-08-06T18:04:03;5.57;;;2.47;;
37645;SDS011;23489;49.600;6.138;2023-08-06T18:06:28;6.05;;;2.42;;
37645;SDS011;23489;49.600;6.138;2023-08-06T18:08:54;4.30;;;2.20;;
37645;SDS011;23489;49.600;6.138;2023-08-06T18:11:19;4.97;;;2.40;;
37645;SDS011;23489;49.600;6.138;2023-08-06T18:13:45;3.90;;;2.00;;
37645;SDS011;23489;49.600;6.138;2023-08-06T18:16:11;4.30;;;2.55;;
37645;SDS011;23489;49.600;6.138;2023-08-06T18:18:36;6.03;;;2.50;;
37645;SDS011;23489;49.600;6.138;2023-08-06T18:21:02;4.93;;;2.47;;
37645;SDS011;23489;49.600;6.138;2023-08-06T18:23:28;4.18;;;2.42;;
37645;SDS011;23489;49.600;6.138;2023-08-06T18:25:54;4.47;;;2.85;;
37645;SDS011;23489;49.600;6.138;2023-08-06T18:28:22;4.77;;;2.10;;
37645;SDS011;23489;49.600;6.138;2023-08-06T18:30:47;3.95;;;2.08;;
37645;SDS011;23489;49.600;6.138;2023-08-06T18:33:13;4.70;;;1.97;;
37645;SDS011;23489;49.600;6.138;2023-08-06T18:35:42;2.83;;;1.90;;
37645;SDS011;23489;49.600;6.138;2023-08-06T18:38:08;2.47;;;1.80;;
37645;SDS011;23489;49.600;6.138;2023-08-06T18:40:33;4.25;;;2.20;;
37645;SDS011;23489;49.600;6.138;2023-08-06T18:42:59;3.40;;;2.00;;
37645;SDS011;23489;49.600;6.138;2023-08-06T18:45:25;4.10;;;2.20;;
37645;SDS011;23489;49.600;6.138;2023-08-06T18:47:50;3.75;;;2.30;;
37645;SDS011;23489;49.600;6.138;2023-08-06T18:50:16;5.15;;;2.15;;
37645;SDS011;23489;49.600;6.138;2023-08-06T18:52:42;6.00;;;2.03;;
37645;SDS011;23489;49.600;6.138;2023-08-06T18:55:08;4.37;;;2.20;;
37645;SDS011;23489;49.600;6.138;2023-08-06T18:57:34;4.85;;;2.30;;
37645;SDS011;23489;49.600;6.138;2023-08-06T18:59:59;4.50;;;2.10;;
37645;SDS011;23489;49.600;6.138;2023-08-06T19:02:25;4.03;;;2.40;;
37645;SDS011;23489;49.600;6.138;2023-08-06T19:04:52;3.95;;;2.10;;
37645;SDS011;23489;49.600;6.138;2023-08-06T19:07:19;4.60;;;2.00;;
37645;SDS011;23489;49.600;6.138;2023-08-06T19:09:44;3.53;;;1.90;;
37645;SDS011;23489;49.600;6.138;2023-08-06T19:12:14;4.27;;;2.10;;
37645;SDS011;23489;49.600;6.138;2023-08-06T19:14:43;3.80;;;2.28;;
37645;SDS011;23489;49.600;6.138;2023-08-06T19:17:08;4.18;;;2.00;;
37645;SDS011;23489;49.600;6.138;2023-08-06T19:19:34;5.43;;;2.15;;
37645;SDS011;23489;49.600;6.138;2023-08-06T19:22:00;3.70;;;1.90;;
37645;SDS011;23489;49.600;6.138;2023-08-06T19:24:25;3.63;;;1.80;;
37645;SDS011;23489;49.600;6.138;2023-08-06T19:26:51;5.47;;;1.97;;
37645;SDS011;23489;49.600;6.138;2023-08-06T19:29:17;3.92;;;2.17;;
37645;SDS011;23489;49.600;6.138;2023-08-06T19:31:43;5.07;;;2.13;;
37645;SDS011;23489;49.600;6.138;2023-08-06T19:34:09;4.00;;;1.95;;
37645;SDS011;23489;49.600;6.138;2023-08-06T19:36:34;4.30;;;2.20;;
37645;SDS011;23489;49.600;6.138;2023-08-06T19:39:00;3.40;;;1.90;;
37645;SDS011;23489;49.600;6.138;2023-08-06T19:41:25;3.47;;;1.90;;
37645;SDS011;23489;49.600;6.138;2023-08-06T19:43:51;4.07;;;1.98;;
37645;SDS011;23489;49.600;6.138;2023-08-06T19:46:16;4.87;;;1.93;;
37645;SDS011;23489;49.600;6.138;2023-08-06T19:48:42;4.57;;;1.80;;
37645;SDS011;23489;49.600;6.138;2023-08-06T19:51:08;4.57;;;1.90;;
37645;SDS011;23489;49.600;6.138;2023-08-06T19:53:34;5.37;;;2.20;;
37645;SDS011;23489;49.600;6.138;2023-08-06T19:56:00;4.72;;;1.90;;
37645;SDS011;23489;49.600;6.138;2023-08-06T19:58:27;3.90;;;1.85;;
37645;SDS011;23489;49.600;6.138;2023-08-06T20:00:54;3.83;;;1.80;;
37645;SDS011;23489;49.600;6.138;2023-08-06T20:03:21;4.47;;;1.95;;
37645;SDS011;23489;49.600;6.138;2023-08-06T20:05:48;3.00;;;1.80;;
37645;SDS011;23489;49.600;6.138;2023-08-06T20:08:14;4.45;;;2.17;;
37645;SDS011;23489;49.600;6.138;2023-08-06T20:10:40;4.50;;;1.90;;
37645;SDS011;23489;49.600;6.138;2023-08-06T20:13:08;3.15;;;1.70;;
37645;SDS011;23489;49.600;6.138;2023-08-06T20:15:37;3.57;;;1.90;;
37645;SDS011;23489;49.600;6.138;2023-08-06T20:18:02;4.80;;;2.00;;
37645;SDS011;23489;49.600;6.138;2023-08-06T20:20:28;3.03;;;2.10;;
37645;SDS011;23489;49.600;6.138;2023-08-06T20:22:54;5.43;;;2.13;;
37645;SDS011;23489;49.600;6.138;2023-08-06T20:25:19;3.85;;;1.90;;
37645;SDS011;23489;49.600;6.138;2023-08-06T20:27:45;4.38;;;2.00;;
37645;SDS011;23489;49.600;6.138;2023-08-06T20:30:11;4.93;;;2.23;;
37645;SDS011;23489;49.600;6.138;2023-08-06T20:32:37;3.10;;;1.60;;
37645;SDS011;23489;49.600;6.138;2023-08-06T20:35:03;6.00;;;2.15;;
37645;SDS011;23489;49.600;6.138;2023-08-06T20:37:29;5.07;;;2.30;;
37645;SDS011;23489;49.600;6.138;2023-08-06T20:39:55;4.75;;;2.25;;
37645;SDS011;23489;49.600;6.138;2023-08-06T20:42:20;4.63;;;1.80;;
37645;SDS011;23489;49.600;6.138;2023-08-06T20:44:46;4.43;;;2.10;;
37645;SDS011;23489;49.600;6.138;2023-08-06T20:47:12;4.60;;;2.05;;
37645;SDS011;23489;49.600;6.138;2023-08-06T20:49:38;4.25;;;1.80;;
37645;SDS011;23489;49.600;6.138;2023-08-06T20:52:05;6.25;;;2.10;;
37645;SDS011;23489;49.600;6.138;2023-08-06T20:54:31;6.07;;;2.00;;
37645;SDS011;23489;49.600;6.138;2023-08-06T20:56:56;4.23;;;2.03;;
37645;SDS011;23489;49.600;6.138;2023-08-06T20:59:22;5.10;;;2.17;;
37645;SDS011;23489;49.600;6.138;2023-08-06T21:01:48;7.47;;;2.30;;
37645;SDS011;23489;49.600;6.138;2023-08-06T21:04:13;4.37;;;2.00;;
37645;SDS011;23489;49.600;6.138;2023-08-06T21:06:39;5.43;;;1.90;;
37645;SDS011;23489;49.600;6.138;2023-08-06T21:09:05;3.90;;;2.00;;
37645;SDS011;23489;49.600;6.138;2023-08-06T21:11:33;4.60;;;1.80;;
37645;SDS011;23489;49.600;6.138;2023-08-06T21:13:59;4.85;;;1.70;;
37645;SDS011;23489;49.600;6.138;2023-08-06T21:16:25;3.57;;;1.90;;
37645;SDS011;23489;49.600;6.138;2023-08-06T21:18:50;2.70;;;1.60;;
37645;SDS011;23489;49.600;6.138;2023-08-06T21:21:16;3.23;;;2.00;;
37645;SDS011;23489;49.600;6.138;2023-08-06T21:23:42;5.10;;;1.90;;
37645;SDS011;23489;49.600;6.138;2023-08-06T21:26:09;3.75;;;1.80;;
37645;SDS011;23489;49.600;6.138;2023-08-06T21:28:35;4.22;;;1.83;;
37645;SDS011;23489;49.600;6.138;2023-08-06T21:31:02;3.55;;;2.00;;
37645;SDS011;23489;49.600;6.138;2023-08-06T21:33:29;3.30;;;1.70;;
37645;SDS011;23489;49.600;6.138;2023-08-06T21:35:57;2.78;;;1.70;;
37645;SDS011;23489;49.600;6.138;2023-08-06T21:38:26;4.18;;;2.03;;
37645;SDS011;23489;49.600;6.138;2023-08-06T21:41:08;2.97;;;1.92;;
37645;SDS011;23489;49.600;6.138;2023-08-06T21:43:48;3.08;;;1.80;;
37645;SDS011;23489;49.600;6.138;2023-08-06T21:46:15;2.77;;;1.80;;
37645;SDS011;23489;49.600;6.138;2023-08-06T21:48:43;3.25;;;1.90;;
37645;SDS011;23489;49.600;6.138;2023-08-06T21:51:12;4.57;;;2.13;;
37645;SDS011;23489;49.600;6.138;2023-08-06T21:53:39;3.53;;;1.83;;
37645;SDS011;23489;49.600;6.138;2023-08-06T21:56:08;2.92;;;1.88;;
37645;SDS011;23489;49.600;6.138;2023-08-06T21:58:39;4.15;;;1.77;;
37645;SDS011;23489;49.600;6.138;2023-08-06T22:01:07;2.47;;;1.90;;
37645;SDS011;23489;49.600;6.138;2023-08-06T22:03:34;3.55;;;2.10;;
37645;SDS011;23489;49.600;6.138;2023-08-06T22:06:00;4.10;;;2.00;;
37645;SDS011;23489;49.600;6.138;2023-08-06T22:08:26;3.63;;;1.87;;
37645;SDS011;23489;49.600;6.138;2023-08-06T22:10:52;3.50;;;1.80;;
37645;SDS011;23489;49.600;6.138;2023-08-06T22:13:19;3.72;;;1.92;;
37645;SDS011;23489;49.600;6.138;2023-08-06T22:15:44;2.50;;;1.90;;
37645;SDS011;23489;49.600;6.138;2023-08-06T22:18:10;4.03;;;1.90;;
37645;SDS011;23489;49.600;6.138;2023-08-06T22:20:36;3.33;;;1.90;;
37645;SDS011;23489;49.600;6.138;2023-08-06T22:23:01;3.87;;;2.00;;
37645;SDS011;23489;49.600;6.138;2023-08-06T22:25:27;3.60;;;1.90;;
37645;SDS011;23489;49.600;6.138;2023-08-06T22:27:54;3.55;;;2.00;;
37645;SDS011;23489;49.600;6.138;2023-08-06T22:30:19;3.73;;;1.90;;
37645;SDS011;23489;49.600;6.138;2023-08-06T22:32:45;3.05;;;1.80;;
37645;SDS011;23489;49.600;6.138;2023-08-06T22:35:11;3.63;;;2.00;;
37645;SDS011;23489;49.600;6.138;2023-08-06T22:37:40;3.35;;;2.17;;
37645;SDS011;23489;49.600;6.138;2023-08-06T22:40:06;4.63;;;2.08;;
37645;SDS011;23489;49.600;6.138;2023-08-06T22:42:32;5.28;;;1.95;;
37645;SDS011;23489;49.600;6.138;2023-08-06T22:44:58;3.77;;;2.13;;
37645;SDS011;23489;49.600;6.138;2023-08-06T22:47:24;4.45;;;2.33;;
37645;SDS011;23489;49.600;6.138;2023-08-06T22:49:49;5.30;;;1.90;;
37645;SDS011;23489;49.600;6.138;2023-08-06T22:52:15;6.10;;;1.98;;
37645;SDS011;23489;49.600;6.138;2023-08-06T22:54:41;4.07;;;2.08;;
37645;SDS011;23489;49.600;6.138;2023-08-06T22:57:06;3.80;;;2.00;;
37645;SDS011;23489;49.600;6.138;2023-08-06T22:59:32;3.83;;;2.10;;
37645;SDS011;23489;49.600;6.138;2023-08-06T23:01:58;3.25;;;2.00;;
37645;SDS011;23489;49.600;6.138;2023-08-06T23:04:24;5.40;;;2.40;;
37645;SDS011;23489;49.600;6.138;2023-08-06T23:06:49;4.35;;;2.58;;
37645;SDS011;23489;49.600;6.138;2023-08-06T23:09:15;6.07;;;2.20;;
37645;SDS011;23489;49.600;6.138;2023-08-06T23:11:41;4.80;;;2.13;;
37645;SDS011;23489;49.600;6.138;2023-08-06T23:14:06;5.20;;;2.33;;
37645;SDS011;23489;49.600;6.138;2023-08-06T23:16:32;4.32;;;2.28;;
37645;SDS011;23489;49.600;6.138;2023-08-06T23:18:57;5.15;;;2.17;;
37645;SDS011;23489;49.600;6.138;2023-08-06T23:21:23;4.27;;;2.33;;
37645;SDS011;23489;49.600;6.138;2023-08-06T23:23:49;4.28;;;2.20;;
37645;SDS011;23489;49.600;6.138;2023-08-06T23:26:15;3.67;;;2.38;;
37645;SDS011;23489;49.600;6.138;2023-08-06T23:28:41;6.03;;;2.70;;
37645;SDS011;23489;49.600;6.138;2023-08-06T23:31:09;4.68;;;2.47;;
37645;SDS011;23489;49.600;6.138;2023-08-06T23:33:38;3.70;;;2.30;;
37645;SDS011;23489;49.600;6.138;2023-08-06T23:36:04;4.77;;;2.40;;
37645;SDS011;23489;49.600;6.138;2023-08-06T23:38:29;5.45;;;2.40;;
37645;SDS011;23489;49.600;6.138;2023-08-06T23:40:55;5.50;;;2.53;;
37645;SDS011;23489;49.600;6.138;2023-08-06T23:43:20;4.90;;;2.50;;
37645;SDS011;23489;49.600;6.138;2023-08-06T23:45:46;5.50;;;2.63;;
37645;SDS011;23489;49.600;6.138;2023-08-06T23:48:12;3.73;;;2.13;;
37645;SDS011;23489;49.600;6.138;2023-08-06T23:50:37;5.65;;;2.60;;
37645;SDS011;23489;49.600;6.138;2023-08-06T23:53:06;5.50;;;2.47;;
37645;SDS011;23489;49.600;6.138;2023-08-06T23:55:32;4.50;;;2.30;;
37645;SDS011;23489;49.600;6.138;2023-08-06T23:57:58;3.83;;;2.30;;
